createdAt,value
2024-01-30T00:00:05.654Z,79.95
2024-01-30T00:02:33.491Z,81.63
2024-01-30T00:05:00.414Z,79.90
2024-01-30T00:07:27.563Z,77.23
2024-01-30T00:09:54.506Z,77.68
2024-01-30T00:12:21.791Z,77.17
2024-01-30T00:14:49.625Z,75.90
2024-01-30T00:17:18.219Z,73.68
2024-01-30T00:19:45.215Z,75.16
2024-01-30T00:22:12.280Z,74.82
2024-01-30T00:24:39.157Z,74.95
2024-01-30T00:27:06.039Z,76.64
2024-01-30T00:29:34.991Z,76.98
2024-01-30T00:32:02.019Z,75.11
2024-01-30T00:34:28.677Z,75.18
2024-01-30T00:36:55.603Z,76.77
2024-01-30T00:39:22.605Z,77.13
2024-01-30T00:41:49.404Z,76.97
2024-01-30T00:44:16.146Z,76.65
2024-01-30T00:46:42.961Z,74.42
2024-01-30T00:49:09.707Z,75.12
2024-01-30T00:51:36.679Z,77.58
2024-01-30T00:54:04.172Z,78.78
2024-01-30T00:56:31.118Z,78.14
2024-01-30T00:58:57.988Z,85.16
2024-01-30T01:01:24.818Z,91.31
2024-01-30T01:03:51.814Z,85.60
2024-01-30T01:06:18.819Z,82.29
2024-01-30T01:08:45.694Z,81.05
2024-01-30T01:11:12.332Z,79.60
2024-01-30T01:13:39.136Z,79.95
2024-01-30T01:16:06.305Z,78.93
2024-01-30T01:18:33.165Z,76.65
2024-01-30T01:21:00.617Z,74.51
2024-01-30T01:23:27.629Z,75.29
2024-01-30T01:25:55.806Z,78.25
2024-01-30T01:28:23.728Z,78.11
2024-01-30T01:30:50.436Z,77.20
2024-01-30T01:33:17.473Z,77.67
2024-01-30T01:35:44.363Z,79.94
2024-01-30T01:38:11.129Z,79.63
2024-01-30T01:40:40.786Z,79.12
2024-01-30T01:43:07.920Z,76.08
2024-01-30T01:45:34.866Z,75.81
2024-01-30T01:48:01.824Z,76.35
2024-01-30T01:50:29.388Z,75.96
2024-01-30T01:52:56.822Z,74.31
2024-01-30T01:55:26.206Z,74.93
2024-01-30T01:57:54.240Z,76.25
2024-01-30T02:00:21.468Z,74.05
2024-01-30T02:02:48.592Z,73.92
2024-01-30T02:05:17.084Z,74.52
2024-01-30T02:07:45.064Z,76.37
2024-01-30T02:10:12.131Z,75.73
2024-01-30T02:12:39.656Z,73.54
2024-01-30T02:15:08.642Z,75.48
2024-01-30T02:17:35.682Z,76.94
2024-01-30T02:20:03.239Z,75.86
2024-01-30T02:22:30.404Z,76.36
2024-01-30T02:24:57.276Z,76.20
2024-01-30T02:27:24.003Z,75.57
2024-01-30T02:29:50.812Z,75.29
2024-01-30T02:32:17.554Z,74.60
2024-01-30T02:34:44.427Z,76.55
2024-01-30T02:37:11.413Z,76.73
2024-01-30T02:39:38.331Z,76.40
2024-01-30T02:42:05.442Z,76.58
2024-01-30T02:44:32.291Z,76.56
2024-01-30T02:46:59.009Z,79.16
2024-01-30T02:49:25.974Z,78.18
2024-01-30T02:51:53.923Z,76.94
2024-01-30T02:54:20.817Z,77.69
2024-01-30T02:56:47.644Z,77.46
2024-01-30T02:59:14.297Z,76.15
2024-01-30T03:01:48.004Z,74.41
2024-01-30T03:04:15.353Z,73.59
2024-01-30T03:06:47.489Z,75.27
2024-01-30T03:09:14.845Z,74.58
2024-01-30T03:11:41.788Z,75.59
2024-01-30T03:14:09.464Z,75.52
2024-01-30T03:16:36.350Z,75.26
2024-01-30T03:19:04.902Z,74.75
2024-01-30T03:21:31.778Z,74.09
2024-01-30T03:23:58.438Z,73.53
2024-01-30T03:26:25.294Z,74.69
2024-01-30T03:28:51.992Z,73.57
2024-01-30T03:31:18.997Z,74.29
2024-01-30T03:33:46.058Z,75.22
2024-01-30T03:36:13.071Z,76.08
2024-01-30T03:38:39.830Z,77.73
2024-01-30T03:41:08.749Z,77.00
2024-01-30T03:43:35.559Z,79.79
2024-01-30T03:46:02.680Z,81.46
2024-01-30T03:48:30.298Z,82.05
2024-01-30T03:50:57.127Z,82.23
2024-01-30T03:53:23.820Z,79.99
2024-01-30T03:55:50.645Z,78.52
2024-01-30T03:58:17.337Z,79.11
2024-01-30T04:00:44.366Z,84.97
2024-01-30T04:03:11.309Z,93.05
2024-01-30T04:05:38.247Z,92.43
2024-01-30T04:08:05.468Z,87.75
2024-01-30T04:10:32.348Z,84.37
2024-01-30T04:12:59.293Z,82.58
2024-01-30T04:15:26.228Z,80.78
2024-01-30T04:17:53.243Z,81.73
2024-01-30T04:20:20.263Z,81.45
2024-01-30T04:22:47.978Z,80.51
2024-01-30T04:25:15.398Z,79.64
2024-01-30T04:27:42.523Z,78.75
2024-01-30T04:30:10.215Z,80.68
2024-01-30T04:32:37.939Z,81.49
2024-01-30T04:35:08.913Z,81.73
2024-01-30T04:37:38.274Z,80.62
2024-01-30T04:40:05.383Z,80.10
2024-01-30T04:42:32.212Z,78.23
2024-01-30T04:44:59.010Z,78.85
2024-01-30T04:47:25.655Z,77.09
2024-01-30T04:49:53.074Z,75.46
2024-01-30T04:52:20.122Z,76.61
2024-01-30T04:54:47.084Z,76.83
2024-01-30T04:57:14.042Z,75.66
2024-01-30T04:59:41.047Z,74.80
2024-01-30T05:02:08.491Z,71.89
2024-01-30T05:04:35.556Z,73.87
2024-01-30T05:07:02.490Z,74.91
2024-01-30T05:09:29.858Z,75.59
2024-01-30T05:11:57.057Z,75.42
2024-01-30T05:14:23.914Z,74.95
2024-01-30T05:16:50.654Z,74.86
2024-01-30T05:19:18.752Z,75.11
2024-01-30T05:21:46.025Z,74.08
2024-01-30T05:24:12.989Z,74.04
2024-01-30T05:26:39.817Z,74.99
2024-01-30T05:29:06.731Z,75.69
2024-01-30T05:31:33.823Z,76.70
2024-01-30T05:34:00.945Z,76.44
2024-01-30T05:36:27.940Z,76.55
2024-01-30T05:38:54.777Z,75.34
2024-01-30T05:41:22.429Z,76.42
2024-01-30T05:43:49.206Z,76.70
2024-01-30T05:46:16.026Z,76.42
2024-01-30T05:48:42.958Z,77.29
2024-01-30T05:51:10.053Z,75.41
2024-01-30T05:53:36.940Z,76.82
2024-01-30T05:56:03.934Z,78.03
2024-01-30T05:58:32.289Z,77.13
2024-01-30T06:00:59.661Z,77.67
2024-01-30T06:03:26.760Z,76.56
2024-01-30T06:05:53.640Z,73.82
2024-01-30T06:08:20.477Z,73.18
2024-01-30T06:10:47.226Z,75.23
2024-01-30T06:13:14.043Z,73.97
2024-01-30T06:15:40.932Z,72.85
2024-01-30T06:18:07.922Z,75.04
2024-01-30T06:20:34.900Z,75.08
2024-01-30T06:23:02.047Z,75.58
2024-01-30T06:25:28.986Z,74.86
2024-01-30T06:27:56.215Z,75.36
2024-01-30T06:30:23.024Z,75.72
2024-01-30T06:32:49.920Z,75.76
2024-01-30T06:35:18.819Z,75.89
2024-01-30T06:37:45.665Z,76.36
2024-01-30T06:40:12.822Z,76.27
2024-01-30T06:42:39.712Z,76.58
2024-01-30T06:45:07.049Z,75.97
2024-01-30T06:47:34.058Z,77.02
2024-01-30T06:50:01.181Z,81.58
2024-01-30T06:52:28.202Z,81.86
2024-01-30T06:54:55.885Z,83.51
2024-01-30T06:57:22.789Z,82.90
2024-01-30T06:59:49.418Z,81.70
2024-01-30T07:02:16.470Z,90.35
2024-01-30T07:04:47.025Z,87.05
2024-01-30T07:07:16.987Z,90.67
2024-01-30T07:09:44.071Z,93.99
2024-01-30T07:12:10.955Z,89.23
2024-01-30T07:14:38.029Z,93.23
2024-01-30T07:17:05.042Z,88.29
2024-01-30T07:19:31.887Z,79.67
2024-01-30T07:21:58.871Z,72.48
2024-01-30T07:24:25.731Z,69.73
2024-01-30T07:26:52.768Z,72.35
2024-01-30T07:29:19.643Z,69.47
2024-01-30T07:31:46.542Z,70.02
2024-01-30T07:34:13.594Z,71.52
2024-01-30T07:36:40.514Z,66.84
2024-01-30T07:39:07.751Z,63.54
2024-01-30T07:41:34.685Z,61.32
2024-01-30T07:44:01.445Z,55.17
2024-01-30T07:46:28.112Z,55.95
2024-01-30T07:48:55.508Z,57.22
2024-01-30T07:51:23.057Z,60.94
2024-01-30T07:53:52.951Z,61.66
2024-01-30T07:56:19.879Z,61.78
2024-01-30T07:58:46.759Z,57.79
2024-01-30T08:01:13.722Z,53.61
2024-01-30T08:03:42.725Z,50.17
2024-01-30T08:06:09.596Z,51.71
2024-01-30T08:08:36.338Z,55.25
2024-01-30T08:11:03.352Z,57.09
2024-01-30T08:13:30.181Z,59.76
2024-01-30T08:15:57.007Z,61.55
2024-01-30T08:18:23.780Z,62.92
2024-01-30T08:20:50.665Z,67.17
2024-01-30T08:23:17.289Z,66.47
2024-01-30T08:25:44.182Z,59.95
2024-01-30T08:28:11.188Z,60.66
2024-01-30T08:30:38.166Z,56.62
2024-01-30T08:33:05.197Z,53.83
2024-01-30T08:35:34.957Z,53.70
2024-01-30T08:38:01.964Z,57.34
2024-01-30T08:40:30.190Z,55.90
2024-01-30T08:42:57.169Z,52.23
2024-01-30T08:45:24.060Z,52.30
2024-01-30T08:47:51.036Z,50.70
2024-01-30T08:50:17.885Z,53.83
2024-01-30T08:52:46.681Z,62.55
2024-01-30T08:55:14.629Z,64.97
2024-01-30T08:57:41.648Z,66.50
2024-01-30T09:00:10.487Z,61.32
2024-01-30T09:02:37.607Z,61.96
2024-01-30T09:05:04.809Z,61.37
2024-01-30T09:07:31.855Z,62.87
2024-01-30T09:09:59.058Z,67.39
2024-01-30T09:12:26.236Z,76.09
2024-01-30T09:14:53.148Z,71.22
2024-01-30T09:17:20.060Z,72.30
2024-01-30T09:19:47.632Z,68.17
2024-01-30T09:22:14.541Z,65.38
2024-01-30T09:24:41.963Z,60.99
2024-01-30T09:27:08.946Z,59.11
2024-01-30T09:29:37.936Z,56.20
2024-01-30T09:32:06.672Z,55.71
2024-01-30T09:34:33.890Z,55.40
2024-01-30T09:37:01.455Z,54.54
2024-01-30T09:39:28.302Z,55.44
2024-01-30T09:42:09.253Z,55.23
2024-01-30T09:44:37.479Z,58.06
2024-01-30T09:47:07.182Z,55.82
2024-01-30T09:49:34.742Z,53.81
2024-01-30T09:52:02.112Z,56.81
2024-01-30T09:54:34.575Z,55.65
2024-01-30T09:57:03.662Z,54.11
2024-01-30T09:59:30.557Z,53.06
2024-01-30T10:01:58.306Z,53.23
2024-01-30T10:04:25.267Z,52.02
2024-01-30T10:06:52.730Z,51.98
2024-01-30T10:09:20.365Z,53.30
2024-01-30T10:11:47.300Z,51.79
2024-01-30T10:14:14.169Z,51.57
2024-01-30T10:16:41.000Z,51.94
2024-01-30T10:19:07.856Z,51.56
2024-01-30T10:21:34.695Z,51.65
2024-01-30T10:24:01.353Z,52.49
2024-01-30T10:26:29.522Z,51.78
2024-01-30T10:28:56.730Z,53.51
2024-01-30T10:31:24.230Z,54.00
2024-01-30T10:33:51.233Z,52.78
2024-01-30T10:36:21.234Z,52.65
2024-01-30T10:38:48.919Z,52.50
2024-01-30T10:41:16.757Z,52.19
2024-01-30T10:43:48.842Z,51.05
2024-01-30T10:46:24.979Z,51.37
2024-01-30T10:48:59.515Z,52.37
2024-01-30T10:51:29.879Z,53.63
2024-01-30T10:53:57.682Z,51.57
2024-01-30T10:56:26.682Z,52.40
2024-01-30T10:58:54.867Z,51.36
2024-01-30T11:01:24.579Z,52.58
2024-01-30T11:03:52.759Z,52.61
2024-01-30T11:06:19.977Z,51.64
2024-01-30T11:08:47.219Z,53.25
2024-01-30T11:11:16.349Z,54.24
2024-01-30T11:13:44.997Z,52.82
2024-01-30T11:16:12.664Z,52.16
2024-01-30T11:18:39.603Z,52.28
2024-01-30T11:21:06.771Z,53.03
2024-01-30T11:23:35.103Z,53.38
2024-01-30T11:26:02.065Z,52.57
2024-01-30T11:28:35.749Z,53.29
2024-01-30T11:31:06.917Z,53.55
2024-01-30T11:33:35.279Z,54.60
2024-01-30T11:36:03.616Z,54.52
2024-01-30T11:38:30.576Z,54.09
2024-01-30T11:41:00.875Z,51.94
2024-01-30T11:43:27.818Z,51.94
2024-01-30T11:45:54.915Z,52.28
2024-01-30T11:48:21.941Z,51.45
2024-01-30T11:50:51.908Z,52.05
2024-01-30T11:53:18.748Z,51.85
2024-01-30T11:55:50.739Z,51.36
2024-01-30T11:58:17.657Z,50.87
2024-01-30T12:00:45.250Z,51.02
2024-01-30T12:03:12.705Z,52.07
2024-01-30T12:05:44.249Z,53.61
2024-01-30T12:08:16.856Z,54.57
2024-01-30T12:10:43.800Z,54.53
2024-01-30T12:13:11.078Z,54.53
2024-01-30T12:15:37.959Z,54.67
2024-01-30T12:18:09.131Z,54.36
2024-01-30T12:20:36.332Z,55.30
2024-01-30T12:23:03.821Z,55.11
2024-01-30T12:25:31.229Z,55.44
2024-01-30T12:27:59.050Z,56.04
2024-01-30T12:30:26.232Z,57.31
2024-01-30T12:32:53.294Z,56.35
2024-01-30T12:35:21.879Z,56.04
2024-01-30T12:37:50.331Z,56.19
2024-01-30T12:40:17.682Z,56.78
2024-01-30T12:42:50.352Z,56.40
2024-01-30T12:45:21.491Z,56.30
2024-01-30T12:47:48.581Z,57.10
2024-01-30T12:50:17.007Z,56.42
2024-01-30T12:52:45.867Z,57.22
2024-01-30T12:55:14.323Z,57.84
2024-01-30T12:57:41.221Z,55.99
2024-01-30T13:00:09.646Z,56.13
2024-01-30T13:02:38.041Z,56.28
2024-01-30T13:05:05.818Z,56.62
2024-01-30T13:07:33.030Z,56.96
2024-01-30T13:10:04.364Z,55.70
2024-01-30T13:12:33.555Z,59.09
2024-01-30T13:15:02.468Z,58.25
2024-01-30T13:17:29.930Z,59.51
2024-01-30T13:20:02.386Z,59.21
2024-01-30T13:22:33.960Z,57.43
2024-01-30T13:25:00.937Z,58.06
2024-01-30T13:27:28.002Z,57.29
2024-01-30T13:29:54.881Z,57.39
2024-01-30T13:32:21.724Z,57.23
2024-01-30T13:34:48.792Z,57.57
2024-01-30T13:37:15.714Z,59.13
2024-01-30T13:39:42.665Z,58.26
2024-01-30T13:42:09.588Z,58.20
2024-01-30T13:44:37.191Z,58.28
2024-01-30T13:47:04.670Z,57.89
2024-01-30T13:49:31.636Z,56.98
2024-01-30T13:51:59.556Z,58.27
2024-01-30T13:54:26.458Z,57.55
2024-01-30T13:56:53.357Z,58.15
2024-01-30T13:59:24.958Z,58.64
2024-01-30T14:01:52.587Z,58.03
2024-01-30T14:04:19.621Z,59.18
2024-01-30T14:06:53.296Z,60.93
2024-01-30T14:09:24.168Z,60.49
2024-01-30T14:11:51.035Z,58.96
2024-01-30T14:14:18.005Z,58.27
2024-01-30T14:16:44.961Z,59.46
2024-01-30T14:19:11.935Z,59.43
2024-01-30T14:21:39.200Z,59.81
2024-01-30T14:24:06.942Z,59.30
2024-01-30T14:26:35.744Z,58.83
2024-01-30T14:29:02.585Z,60.86
2024-01-30T14:31:29.399Z,61.89
2024-01-30T14:33:56.737Z,61.40
2024-01-30T14:36:23.779Z,61.57
2024-01-30T14:38:50.665Z,61.48
2024-01-30T14:41:17.429Z,61.20
2024-01-30T14:43:44.654Z,61.94
2024-01-30T14:46:11.658Z,60.53
2024-01-30T14:48:38.692Z,59.53
2024-01-30T14:51:05.705Z,58.23
2024-01-30T14:53:32.546Z,58.10
2024-01-30T14:55:59.322Z,58.48
2024-01-30T14:58:26.251Z,60.19
2024-01-30T15:00:53.283Z,61.41
2024-01-30T15:03:23.459Z,60.80
2024-01-30T15:05:51.016Z,62.35
2024-01-30T15:08:17.971Z,60.20
2024-01-30T15:10:45.025Z,60.40
2024-01-30T15:13:13.225Z,58.49
2024-01-30T15:15:40.119Z,57.68
2024-01-30T15:18:07.137Z,58.29
2024-01-30T15:20:34.099Z,58.19
2024-01-30T15:23:01.058Z,58.53
2024-01-30T15:25:30.556Z,58.37
2024-01-30T15:27:57.591Z,59.22
2024-01-30T15:30:24.500Z,59.15
2024-01-30T15:32:52.684Z,57.17
2024-01-30T15:35:19.796Z,58.97
2024-01-30T15:37:47.371Z,58.23
2024-01-30T15:40:14.689Z,59.04
2024-01-30T15:42:41.618Z,56.65
2024-01-30T15:45:08.720Z,59.09
2024-01-30T15:47:35.744Z,60.52
2024-01-30T15:50:02.871Z,58.82
2024-01-30T15:52:29.912Z,59.47
2024-01-30T15:54:56.842Z,59.36
2024-01-30T15:57:24.672Z,60.84
2024-01-30T15:59:51.986Z,62.29
2024-01-30T16:02:20.260Z,62.20
2024-01-30T16:04:48.074Z,61.44
2024-01-30T16:07:15.077Z,61.50
2024-01-30T16:09:42.075Z,62.06
2024-01-30T16:12:09.032Z,62.45
2024-01-30T16:14:37.562Z,63.24
2024-01-30T16:17:04.683Z,63.64
2024-01-30T16:19:31.692Z,63.13
2024-01-30T16:21:58.869Z,63.98
2024-01-30T16:24:25.800Z,64.28
2024-01-30T16:26:52.700Z,64.00
2024-01-30T16:29:19.549Z,63.92
2024-01-30T16:31:46.390Z,64.40
2024-01-30T16:34:13.423Z,63.82
2024-01-30T16:36:41.206Z,64.78
2024-01-30T16:39:09.036Z,65.38
2024-01-30T16:41:37.047Z,66.41
2024-01-30T16:44:05.394Z,64.10
2024-01-30T16:46:32.258Z,65.22
2024-01-30T16:48:59.359Z,66.68
2024-01-30T16:51:26.374Z,67.22
2024-01-30T16:53:53.193Z,68.64
2024-01-30T16:56:19.959Z,68.37
2024-01-30T16:58:46.610Z,67.08
2024-01-30T17:01:13.482Z,69.11
2024-01-30T17:03:43.217Z,67.87
2024-01-30T17:06:13.628Z,67.80
2024-01-30T17:08:41.207Z,67.91
2024-01-30T17:11:09.157Z,68.47
2024-01-30T17:13:37.357Z,69.33
2024-01-30T17:16:04.575Z,71.31
2024-01-30T17:18:31.927Z,73.24
2024-01-30T17:20:58.861Z,72.84
2024-01-30T17:23:27.176Z,76.39
2024-01-30T17:25:54.254Z,76.27
2024-01-30T17:28:21.306Z,75.40
2024-01-30T17:30:49.225Z,76.20
2024-01-30T17:33:16.712Z,76.98
2024-01-30T17:35:43.824Z,76.63
2024-01-30T17:38:10.829Z,76.16
2024-01-30T17:40:37.833Z,76.24
2024-01-30T17:43:05.022Z,75.29
2024-01-30T17:45:32.038Z,76.01
2024-01-30T17:47:58.955Z,76.86
2024-01-30T17:50:26.085Z,77.31
2024-01-30T17:52:55.002Z,80.69
2024-01-30T17:55:21.943Z,80.45
2024-01-30T17:57:48.775Z,82.89
2024-01-30T18:00:19.168Z,83.49
2024-01-30T18:02:46.577Z,82.67
2024-01-30T18:05:13.952Z,82.22
2024-01-30T18:07:41.490Z,83.55
2024-01-30T18:10:08.887Z,81.96
2024-01-30T18:12:36.381Z,81.81
2024-01-30T18:15:06.807Z,82.42
2024-01-30T18:17:33.598Z,79.71
2024-01-30T18:20:00.805Z,81.12
2024-01-30T18:22:27.953Z,80.42
2024-01-30T18:24:54.765Z,80.22
2024-01-30T18:27:22.674Z,78.34
2024-01-30T18:29:52.194Z,78.09
2024-01-30T18:32:20.129Z,78.08
2024-01-30T18:34:47.145Z,78.49
2024-01-30T18:37:14.126Z,79.81
2024-01-30T18:39:43.291Z,76.13
2024-01-30T18:42:10.324Z,75.34
2024-01-30T18:44:37.242Z,73.55
2024-01-30T18:47:04.522Z,72.94
2024-01-30T18:49:31.404Z,76.59
2024-01-30T18:51:59.676Z,75.73
2024-01-30T18:54:26.834Z,76.87
2024-01-30T18:56:53.650Z,76.42
2024-01-30T18:59:20.284Z,83.19
2024-01-30T19:01:47.267Z,80.36
2024-01-30T19:04:14.507Z,79.79
2024-01-30T19:06:41.545Z,83.40
2024-01-30T19:09:11.611Z,84.44
2024-01-30T19:11:38.476Z,85.48
2024-01-30T19:14:05.389Z,84.99
2024-01-30T19:16:32.301Z,82.18
2024-01-30T19:18:59.255Z,79.44
2024-01-30T19:21:26.162Z,77.84
2024-01-30T19:23:54.708Z,75.93
2024-01-30T19:26:21.530Z,75.35
2024-01-30T19:28:50.543Z,76.18
2024-01-30T19:31:19.181Z,75.75
2024-01-30T19:33:46.718Z,75.19
2024-01-30T19:36:14.111Z,75.33
2024-01-30T19:38:41.054Z,75.80
2024-01-30T19:41:08.849Z,77.83
2024-01-30T19:43:36.006Z,79.27
2024-01-30T19:46:02.975Z,76.04
2024-01-30T19:48:29.934Z,75.71
2024-01-30T19:50:57.694Z,78.23
2024-01-30T19:53:24.636Z,76.28
2024-01-30T19:55:51.510Z,75.11
2024-01-30T19:58:18.369Z,74.68
2024-01-30T20:00:45.536Z,74.40
2024-01-30T20:03:12.505Z,73.13
2024-01-30T20:05:39.457Z,73.38
2024-01-30T20:08:06.662Z,73.28
2024-01-30T20:10:33.733Z,72.85
2024-01-30T20:13:00.695Z,73.61
2024-01-30T20:15:27.654Z,78.90
2024-01-30T20:17:54.490Z,75.82
2024-01-30T20:20:21.765Z,74.66
2024-01-30T20:22:48.810Z,75.31
2024-01-30T20:25:19.229Z,74.06
2024-01-30T20:27:47.761Z,74.80
2024-01-30T20:30:14.863Z,73.83
2024-01-30T20:32:41.974Z,72.21
2024-01-30T20:35:09.422Z,72.35
2024-01-30T20:37:38.297Z,74.76
2024-01-30T20:40:05.925Z,74.14
2024-01-30T20:42:32.847Z,74.00
2024-01-30T20:44:59.795Z,75.56
2024-01-30T20:47:26.862Z,76.88
2024-01-30T20:49:53.923Z,75.61
2024-01-30T20:52:20.806Z,74.54
2024-01-30T20:54:47.676Z,72.84
2024-01-30T20:57:14.628Z,72.10
2024-01-30T20:59:41.468Z,74.16
2024-01-30T21:02:08.344Z,76.57
2024-01-30T21:04:35.276Z,76.46
2024-01-30T21:07:02.260Z,76.85
2024-01-30T21:09:29.302Z,75.94
2024-01-30T21:11:56.788Z,75.84
2024-01-30T21:14:23.757Z,75.19
2024-01-30T21:16:50.516Z,76.68
2024-01-30T21:19:18.012Z,76.22
2024-01-30T21:21:44.925Z,76.73
2024-01-30T21:24:11.551Z,77.38
2024-01-30T21:26:38.453Z,78.11
2024-01-30T21:29:05.306Z,77.54
2024-01-30T21:31:32.203Z,77.60
2024-01-30T21:33:59.115Z,76.64
2024-01-30T21:36:25.991Z,75.03
2024-01-30T21:38:52.813Z,73.67
2024-01-30T21:41:19.914Z,73.12
2024-01-30T21:43:47.464Z,74.21
2024-01-30T21:46:24.478Z,73.93
2024-01-30T21:48:51.352Z,71.75
2024-01-30T21:51:20.918Z,74.08
2024-01-30T21:53:47.952Z,74.41
2024-01-30T21:56:14.925Z,74.91
2024-01-30T21:58:41.829Z,76.78
2024-01-30T22:01:08.769Z,77.25
2024-01-30T22:03:35.819Z,76.28
2024-01-30T22:06:02.672Z,75.77
2024-01-30T22:08:29.302Z,75.56
2024-01-30T22:10:56.161Z,74.01
2024-01-30T22:13:23.602Z,74.38
2024-01-30T22:15:50.641Z,76.13
2024-01-30T22:18:17.540Z,77.32
2024-01-30T22:20:44.487Z,76.15
2024-01-30T22:23:11.213Z,75.53
2024-01-30T22:25:38.207Z,79.52
2024-01-30T22:28:05.478Z,78.90
2024-01-30T22:30:32.329Z,85.33
2024-01-30T22:32:59.079Z,80.50
2024-01-30T22:35:25.987Z,84.65
2024-01-30T22:37:53.042Z,82.34
2024-01-30T22:40:19.942Z,80.12
2024-01-30T22:42:46.787Z,79.77
2024-01-30T22:45:13.511Z,75.83
2024-01-30T22:47:40.326Z,76.79
2024-01-30T22:50:07.333Z,81.78
2024-01-30T22:52:34.253Z,79.81
2024-01-30T22:55:01.288Z,78.86
2024-01-30T22:57:29.034Z,75.36
2024-01-30T22:59:56.057Z,76.46
2024-01-30T23:02:23.107Z,76.16
2024-01-30T23:04:50.600Z,77.12
2024-01-30T23:07:18.046Z,75.11
2024-01-30T23:09:47.782Z,76.09
2024-01-30T23:12:14.640Z,75.34
2024-01-30T23:14:41.343Z,75.29
2024-01-30T23:17:08.173Z,74.01
2024-01-30T23:19:34.823Z,74.97
2024-01-30T23:22:01.904Z,76.90
2024-01-30T23:24:28.745Z,78.19
2024-01-30T23:26:55.436Z,79.24
2024-01-30T23:29:22.285Z,81.23
2024-01-30T23:31:49.584Z,81.22
2024-01-30T23:34:16.583Z,77.60
2024-01-30T23:36:44.448Z,78.21
2024-01-30T23:39:11.574Z,75.64
2024-01-30T23:41:38.439Z,75.51
2024-01-30T23:44:06.602Z,74.59
2024-01-30T23:46:33.958Z,81.75
2024-01-30T23:49:01.903Z,79.20
2024-01-30T23:51:28.898Z,82.28
2024-01-30T23:53:55.828Z,81.48
2024-01-30T23:56:23.055Z,80.49
2024-01-30T23:58:49.972Z,78.79
